Time;durP1;ratioP1;P1;durP2;ratioP2;P2;SDS_P1;SDS_P2;PMS_P1;PMS_P2;Temp;Humidity;BMP_temperature;BMP_pressure;BME280_temperature;BME280_humidity;BME280_pressure;Samples;Min_cycle;Max_cycle;Signal;HPM_P1;HPM_P2
2022/05/12 00:00:54;;;;;;;3.30;1.80;;;17.30;85.10;;;;;;4984200;28;20038;-78
2022/05/12 00:03:20;;;;;;;2.80;1.70;;;17.30;85.10;;;;;;4985724;28;20085;-78
2022/05/12 00:05:46;;;;;;;3.45;1.73;;;17.30;85.10;;;;;;4956080;28;20450;-78
2022/05/12 00:08:11;;;;;;;2.67;1.83;;;17.30;85.10;;;;;;4974266;28;20023;-77
2022/05/12 00:10:38;;;;;;;3.65;1.75;;;17.30;85.10;;;;;;4973713;28;20398;-78
2022/05/12 00:13:04;;;;;;;3.47;1.48;;;17.30;85.10;;;;;;4987058;28;20093;-78
2022/05/12 00:15:33;;;;;;;2.50;1.52;;;17.30;85.00;;;;;;4975742;28;20433;-77
2022/05/12 00:18:02;;;;;;;3.45;1.70;;;17.30;84.80;;;;;;4993245;28;20106;-77
2022/05/12 00:20:28;;;;;;;2.75;1.50;;;17.40;84.80;;;;;;4993014;28;20474;-77
2022/05/12 00:23:34;;;;;;;3.05;1.90;;;17.40;84.60;;;;;;4975767;28;20037;-77
2022/05/12 00:25:59;;;;;;;3.55;1.70;;;17.50;84.50;;;;;;4972551;28;20094;-77
2022/05/12 00:28:26;;;;;;;2.42;1.52;;;17.50;84.40;;;;;;4992943;28;20109;-78
2022/05/12 00:30:54;;;;;;;3.25;1.55;;;17.50;84.30;;;;;;4992955;28;20113;-78
2022/05/12 00:33:22;;;;;;;3.33;1.85;;;17.50;84.40;;;;;;4992775;28;20037;-78
2022/05/12 00:35:47;;;;;;;4.75;1.90;;;17.40;84.50;;;;;;4975186;28;20034;-78
2022/05/12 00:38:13;;;;;;;2.47;1.50;;;17.40;84.60;;;;;;4975300;28;20410;-77
2022/05/12 00:40:42;;;;;;;3.20;1.75;;;17.40;84.70;;;;;;4992634;28;20038;-77
2022/05/12 00:43:45;;;;;;;2.70;1.60;;;17.40;84.70;;;;;;4982350;28;20518;-77
2022/05/12 00:46:32;;;;;;;2.53;1.55;;;17.40;84.80;;;;;;4973079;28;20035;-78
2022/05/12 00:49:05;;;;;;;4.05;1.77;;;17.30;85.00;;;;;;4973440;28;20073;-77
2022/05/12 00:51:52;;;;;;;2.72;1.60;;;17.30;85.10;;;;;;4976176;28;20034;-78
2022/05/12 00:54:26;;;;;;;3.05;1.60;;;17.30;85.20;;;;;;4976449;28;20232;-78
2022/05/12 00:56:52;;;;;;;2.85;1.52;;;17.30;85.30;;;;;;4969582;28;20076;-77
2022/05/12 00:59:26;;;;;;;3.72;1.70;;;17.30;85.30;;;;;;4996648;28;20026;-77
2022/05/12 01:01:52;;;;;;;2.65;1.40;;;17.30;85.30;;;;;;4996385;28;20389;-77
2022/05/12 01:04:19;;;;;;;2.20;1.33;;;17.30;85.30;;;;;;4978620;28;20023;-78
2022/05/12 01:06:45;;;;;;;2.58;1.52;;;17.30;85.30;;;;;;4978485;28;20434;-77
2022/05/12 01:09:11;;;;;;;3.20;1.67;;;17.30;85.30;;;;;;4978596;28;20112;-78
2022/05/12 01:11:37;;;;;;;2.97;1.70;;;17.30;85.30;;;;;;4996034;28;20034;-77
2022/05/12 01:14:05;;;;;;;3.22;1.70;;;17.30;85.30;;;;;;4996020;28;20018;-77
2022/05/12 01:16:35;;;;;;;2.83;1.50;;;17.30;85.30;;;;;;4989742;28;20027;-77
2022/05/12 01:19:01;;;;;;;3.13;1.70;;;17.30;85.30;;;;;;4959294;28;20045;-77
2022/05/12 01:21:26;;;;;;;2.85;1.60;;;17.40;85.20;;;;;;4976584;28;20495;-77
2022/05/12 01:23:52;;;;;;;2.92;1.40;;;17.40;85.00;;;;;;4976500;28;20030;-77
2022/05/12 01:26:17;;;;;;;2.75;1.50;;;17.40;84.80;;;;;;4980790;28;20026;-77
2022/05/12 01:28:43;;;;;;;3.28;1.63;;;17.40;84.70;;;;;;4977764;28;20027;-77
2022/05/12 01:31:15;;;;;;;3.75;1.60;;;17.40;84.60;;;;;;4976335;28;20026;-77
2022/05/12 01:33:40;;;;;;;2.13;1.33;;;17.40;84.50;;;;;;4976550;28;20054;-77
2022/05/12 01:36:06;;;;;;;2.38;1.40;;;17.40;84.60;;;;;;4958604;28;20072;-77
2022/05/12 01:38:31;;;;;;;3.17;1.50;;;17.40;85.30;;;;;;4959058;28;20125;-77
2022/05/12 01:40:57;;;;;;;3.65;1.67;;;17.40;84.80;;;;;;4959223;28;20371;-77
2022/05/12 01:43:23;;;;;;;2.60;1.58;;;17.40;84.70;;;;;;4975202;28;20488;-77
2022/05/12 01:45:48;;;;;;;3.22;1.67;;;17.40;84.80;;;;;;4976143;28;20431;-77
2022/05/12 01:48:15;;;;;;;3.13;1.70;;;17.30;84.90;;;;;;4974570;28;20497;-78
2022/05/12 01:50:43;;;;;;;4.15;1.73;;;17.30;84.90;;;;;;4987942;28;20030;-78
2022/05/12 01:53:10;;;;;;;2.70;1.48;;;17.30;85.00;;;;;;4977789;28;20033;-78
2022/05/12 01:55:36;;;;;;;2.90;1.50;;;17.30;85.10;;;;;;4994544;28;20033;-77
2022/05/12 01:58:03;;;;;;;3.22;1.60;;;17.30;85.40;;;;;;4977525;28;20042;-78
2022/05/12 02:00:29;;;;;;;3.40;1.65;;;17.30;85.40;;;;;;4977245;28;20396;-77
2022/05/12 02:02:59;;;;;;;2.90;1.67;;;17.30;85.40;;;;;;4994272;28;20028;-77
2022/05/12 02:05:25;;;;;;;2.58;1.50;;;17.30;85.40;;;;;;4977170;28;20019;-77
2022/05/12 02:07:51;;;;;;;2.83;1.50;;;17.30;85.50;;;;;;4977696;28;20482;-78
2022/05/12 02:10:24;;;;;;;3.17;1.60;;;17.30;85.50;;;;;;4978244;28;20026;-78
2022/05/12 02:12:49;;;;;;;3.25;1.50;;;17.30;85.40;;;;;;4995251;28;20105;-78
2022/05/12 02:15:15;;;;;;;2.65;1.50;;;17.30;85.50;;;;;;4994276;28;20481;-77
2022/05/12 02:17:41;;;;;;;2.67;1.50;;;17.30;85.50;;;;;;4977258;28;20072;-78
2022/05/12 02:20:08;;;;;;;2.00;1.33;;;17.30;85.50;;;;;;4986215;28;20046;-77
2022/05/12 02:22:34;;;;;;;2.20;1.50;;;17.30;85.30;;;;;;4957725;28;20085;-77
2022/05/12 02:24:59;;;;;;;2.67;1.42;;;17.30;85.10;;;;;;4974740;28;20030;-77
2022/05/12 02:27:25;;;;;;;2.45;1.40;;;17.40;85.10;;;;;;4957768;28;20018;-77
2022/05/12 02:29:50;;;;;;;2.53;1.60;;;17.40;84.80;;;;;;4963873;28;20022;-77
2022/05/12 02:32:16;;;;;;;3.00;1.45;;;17.40;84.70;;;;;;4994768;28;20027;-77
2022/05/12 02:34:41;;;;;;;2.50;1.45;;;17.40;84.60;;;;;;4994020;28;20097;-77
2022/05/12 02:37:08;;;;;;;2.65;1.33;;;17.40;84.50;;;;;;4975942;28;20030;-77
2022/05/12 02:39:36;;;;;;;2.75;1.35;;;17.40;84.60;;;;;;4975601;28;20106;-77
2022/05/12 02:42:05;;;;;;;3.20;1.25;;;17.40;84.70;;;;;;4975071;28;20026;-77
2022/05/12 02:44:31;;;;;;;2.45;1.27;;;17.40;84.90;;;;;;4989727;28;20157;-77
2022/05/12 02:46:57;;;;;;;2.80;1.50;;;17.30;84.70;;;;;;4958045;28;20066;-77
2022/05/12 02:49:23;;;;;;;2.50;1.40;;;17.30;84.80;;;;;;4975135;28;20026;-77
2022/05/12 02:51:49;;;;;;;3.15;1.60;;;17.30;84.90;;;;;;4975173;28;20041;-77
2022/05/12 02:54:16;;;;;;;3.67;1.50;;;17.30;85.00;;;;;;4974980;28;20031;-77
2022/05/12 02:56:42;;;;;;;3.10;1.52;;;17.30;85.10;;;;;;4975030;28;20453;-77
2022/05/12 02:59:09;;;;;;;2.85;1.40;;;17.30;85.20;;;;;;4974966;28;20069;-77
2022/05/12 03:01:35;;;;;;;2.33;1.40;;;17.30;85.30;;;;;;4957944;28;20122;-78
2022/05/12 03:04:00;;;;;;;2.15;1.30;;;17.30;85.40;;;;;;4974992;28;20067;-77
2022/05/12 03:06:27;;;;;;;3.40;1.58;;;17.30;85.40;;;;;;4987538;28;20031;-77
2022/05/12 03:08:53;;;;;;;2.50;1.55;;;17.30;85.40;;;;;;4994093;28;20050;-77
2022/05/12 03:11:19;;;;;;;2.85;1.48;;;17.20;85.40;;;;;;4995441;28;20102;-77
2022/05/12 03:13:46;;;;;;;2.97;1.50;;;17.20;85.40;;;;;;4975919;28;20114;-78
2022/05/12 03:16:12;;;;;;;2.50;1.48;;;17.20;85.40;;;;;;4982913;28;20482;-78
2022/05/12 03:18:39;;;;;;;2.47;1.30;;;17.20;85.40;;;;;;4974916;28;20027;-77
2022/05/12 03:21:04;;;;;;;2.90;1.50;;;17.20;85.40;;;;;;4958160;28;20065;-78
2022/05/12 03:23:30;;;;;;;2.40;1.33;;;17.30;85.40;;;;;;4974778;28;20035;-77
2022/05/12 03:25:56;;;;;;;1.73;1.25;;;17.30;85.30;;;;;;4980199;28;20478;-77
2022/05/12 03:28:22;;;;;;;2.10;1.40;;;17.30;85.10;;;;;;4985185;28;20081;-77
2022/05/12 03:30:47;;;;;;;2.45;1.30;;;17.30;85.00;;;;;;4957487;28;20031;-77
2022/05/12 03:33:14;;;;;;;2.95;1.50;;;17.40;84.90;;;;;;4957185;28;20401;-77
2022/05/12 03:35:39;;;;;;;2.22;1.27;;;17.40;84.80;;;;;;4973113;28;20504;-77
2022/05/12 03:38:06;;;;;;;3.63;1.60;;;17.40;84.60;;;;;;4974826;28;20031;-77
2022/05/12 03:40:32;;;;;;;2.00;1.30;;;17.40;84.50;;;;;;4974633;28;20077;-78
2022/05/12 03:42:58;;;;;;;2.28;1.40;;;17.40;84.60;;;;;;4972690;28;20027;-78
2022/05/12 03:45:28;;;;;;;2.22;1.30;;;17.40;84.80;;;;;;4974314;28;20097;-78
2022/05/12 03:47:55;;;;;;;2.08;1.33;;;17.30;84.90;;;;;;4956630;28;20030;-78
2022/05/12 03:50:23;;;;;;;2.35;1.23;;;17.30;84.70;;;;;;4974028;28;20027;-77
2022/05/12 03:52:50;;;;;;;2.35;1.40;;;17.30;84.80;;;;;;4974462;28;20035;-78
2022/05/12 03:55:20;;;;;;;2.20;1.40;;;17.30;84.90;;;;;;4980427;28;20030;-79
2022/05/12 03:57:48;;;;;;;3.60;1.50;;;17.30;85.00;;;;;;4976437;28;20410;-77
2022/05/12 04:00:18;;;;;;;2.58;1.50;;;17.30;85.10;;;;;;4993367;28;20030;-78
2022/05/12 04:02:44;;;;;;;2.05;1.33;;;17.20;85.00;;;;;;4994550;28;20034;-78
2022/05/12 04:05:10;;;;;;;2.55;1.30;;;17.30;85.30;;;;;;4975855;28;20077;-77
2022/05/12 04:07:41;;;;;;;2.50;1.48;;;17.20;85.30;;;;;;4992148;28;20029;-77
2022/05/12 04:10:07;;;;;;;2.30;1.30;;;17.20;85.30;;;;;;4958028;28;20034;-77
2022/05/12 04:12:32;;;;;;;2.50;1.48;;;17.20;85.30;;;;;;4973835;28;20031;-77
2022/05/12 04:14:59;;;;;;;2.47;1.40;;;17.20;85.20;;;;;;4973616;28;20030;-77
2022/05/12 04:17:25;;;;;;;2.00;1.30;;;17.20;85.20;;;;;;4956471;28;20062;-77
2022/05/12 04:19:52;;;;;;;2.53;1.40;;;17.20;85.40;;;;;;4975574;28;20074;-78
2022/05/12 04:22:18;;;;;;;2.67;1.30;;;17.20;85.30;;;;;;4963575;28;20031;-82
2022/05/12 04:24:44;;;;;;;2.78;1.30;;;17.20;85.40;;;;;;4978673;28;20102;-80
2022/05/12 04:27:10;;;;;;;2.00;1.30;;;17.20;85.30;;;;;;5004257;28;20022;-77
2022/05/12 04:29:37;;;;;;;2.47;1.42;;;17.30;85.20;;;;;;4981623;28;20026;-77
2022/05/12 04:32:03;;;;;;;1.98;1.40;;;17.30;85.10;;;;;;4979251;28;20026;-77
2022/05/12 04:37:12;;;;;;;3.13;1.30;;;17.40;84.80;;;;;;4997025;28;20049;-78
2022/05/12 04:39:38;;;;;;;2.42;1.40;;;17.40;84.60;;;;;;4978907;28;20482;-77
2022/05/12 04:42:04;;;;;;;1.85;1.30;;;17.40;84.60;;;;;;4979053;28;20033;-78
2022/05/12 04:44:29;;;;;;;2.63;1.10;;;17.40;84.50;;;;;;4993745;28;20506;-77
2022/05/12 04:46:55;;;;;;;2.47;1.23;;;17.40;84.40;;;;;;4978579;28;20036;-77
2022/05/12 04:49:22;;;;;;;1.92;1.20;;;17.40;84.60;;;;;;4978690;28;20025;-77
2022/05/12 04:51:48;;;;;;;2.85;1.55;;;17.30;84.70;;;;;;4979083;28;20113;-77
2022/05/12 04:54:14;;;;;;;2.08;1.17;;;17.30;84.60;;;;;;4977580;28;20073;-75
2022/05/12 04:56:41;;;;;;;1.63;1.00;;;17.30;84.70;;;;;;4995162;28;21060;-77
2022/05/12 04:59:08;;;;;;;1.38;1.08;;;17.30;84.70;;;;;;4995642;28;20034;-76
2022/05/12 05:01:35;;;;;;;1.50;1.10;;;17.30;84.70;;;;;;4967804;28;20023;-79
2022/05/12 05:04:03;;;;;;;2.92;1.33;;;17.30;84.70;;;;;;4978608;28;20045;-77
2022/05/12 05:06:29;;;;;;;2.47;1.17;;;17.30;85.00;;;;;;4961173;28;20113;-80
2022/05/12 05:08:55;;;;;;;2.33;1.35;;;17.30;85.10;;;;;;4976781;28;20019;-78
2022/05/12 05:11:21;;;;;;;2.42;1.23;;;17.30;85.00;;;;;;4954747;28;20042;-75
2022/05/12 05:13:47;;;;;;;1.95;1.17;;;17.30;85.10;;;;;;4954602;28;20055;-78
2022/05/12 05:16:12;;;;;;;1.88;1.25;;;17.30;85.20;;;;;;4961497;28;20026;-79
2022/05/12 05:18:38;;;;;;;1.60;1.17;;;17.20;85.10;;;;;;4993770;28;20402;-81
2022/05/12 05:21:04;;;;;;;2.40;1.23;;;17.30;85.20;;;;;;4976716;28;20118;-78
2022/05/12 05:23:30;;;;;;;1.77;1.10;;;17.20;85.10;;;;;;4978221;28;20050;-78
2022/05/12 05:25:56;;;;;;;1.60;1.10;;;17.20;85.20;;;;;;4961293;28;20069;-81
2022/05/12 05:28:22;;;;;;;2.25;1.23;;;17.30;85.30;;;;;;4979207;28;20086;-81
2022/05/12 05:30:48;;;;;;;2.10;1.20;;;17.20;85.20;;;;;;4972678;28;20059;-83
2022/05/12 05:33:13;;;;;;;2.15;1.15;;;17.30;85.20;;;;;;4981645;28;20096;-84
2022/05/12 05:35:39;;;;;;;1.98;1.08;;;17.30;85.00;;;;;;4973710;28;20026;-77
2022/05/12 05:38:05;;;;;;;2.40;1.30;;;17.30;84.90;;;;;;4976394;28;20061;-78
2022/05/12 05:40:31;;;;;;;2.88;1.40;;;17.40;84.70;;;;;;4975373;28;20030;-77
2022/05/12 05:42:58;;;;;;;1.50;1.10;;;17.40;84.60;;;;;;4975308;28;20084;-78
2022/05/12 05:45:25;;;;;;;2.25;1.10;;;17.40;84.40;;;;;;4973836;28;20030;-78
2022/05/12 05:47:54;;;;;;;2.40;1.02;;;17.40;84.40;;;;;;4975334;28;20129;-78
2022/05/12 05:50:24;;;;;;;2.45;1.20;;;17.40;84.30;;;;;;4992511;28;20034;-79
2022/05/12 05:55:34;;;;;;;2.08;1.15;;;17.40;84.50;;;;;;4991970;28;20041;-78
2022/05/12 05:58:01;;;;;;;1.88;1.10;;;17.40;84.50;;;;;;4975923;28;20034;-78
2022/05/12 06:00:28;;;;;;;1.80;1.10;;;17.40;84.30;;;;;;4975698;28;20034;-78
2022/05/12 06:02:54;;;;;;;2.80;1.23;;;17.40;84.30;;;;;;4975677;28;20018;-78
2022/05/12 06:05:21;;;;;;;2.10;1.00;;;17.40;84.30;;;;;;4972969;28;20026;-78
2022/05/12 06:07:47;;;;;;;1.48;1.17;;;17.40;84.60;;;;;;4991072;28;20050;-79
2022/05/12 06:10:13;;;;;;;2.05;1.20;;;17.40;84.60;;;;;;4972931;28;20560;-78
2022/05/12 06:12:38;;;;;;;2.25;1.20;;;17.40;84.60;;;;;;4991228;28;20027;-78
2022/05/12 06:15:05;;;;;;;2.15;1.10;;;17.30;84.60;;;;;;4991228;28;20029;-78
2022/05/12 06:17:30;;;;;;;3.08;1.45;;;17.40;84.60;;;;;;4972831;28;20129;-77
2022/05/12 06:19:57;;;;;;;2.00;1.20;;;17.40;84.50;;;;;;4972034;28;20855;-77
2022/05/12 06:22:22;;;;;;;2.45;1.23;;;17.40;84.50;;;;;;4972061;28;20030;-78
2022/05/12 06:24:49;;;;;;;2.78;1.15;;;17.40;84.30;;;;;;4971418;28;20027;-79
2022/05/12 06:27:16;;;;;;;3.55;1.30;;;17.40;84.20;;;;;;4971997;28;20077;-77
2022/05/12 06:29:44;;;;;;;1.40;1.00;;;17.40;84.10;;;;;;4989317;28;20029;-78
2022/05/12 06:32:10;;;;;;;3.15;1.08;;;17.40;84.00;;;;;;4989403;28;20034;-78
2022/05/12 06:34:36;;;;;;;2.55;1.20;;;17.40;84.00;;;;;;4988988;28;20027;-78
2022/05/12 06:37:04;;;;;;;2.03;1.02;;;17.50;83.90;;;;;;4971837;28;20088;-78
2022/05/12 06:39:30;;;;;;;2.70;1.30;;;17.50;83.70;;;;;;4971679;28;20860;-77
2022/05/12 06:41:56;;;;;;;2.63;1.30;;;17.60;83.60;;;;;;4971802;28;20026;-77
2022/05/12 06:44:22;;;;;;;2.58;1.20;;;17.60;83.50;;;;;;4971353;28;20037;-77
2022/05/12 06:46:48;;;;;;;3.83;1.10;;;17.60;83.30;;;;;;4982035;28;20055;-79
2022/05/12 06:49:14;;;;;;;3.30;1.40;;;17.60;83.30;;;;;;4971270;28;20038;-78
2022/05/12 06:51:39;;;;;;;3.17;1.20;;;17.60;83.90;;;;;;4988670;28;20449;-77
2022/05/12 06:54:05;;;;;;;1.50;1.00;;;17.60;83.50;;;;;;4971410;28;20030;-78
2022/05/12 06:56:31;;;;;;;2.55;1.13;;;17.60;83.50;;;;;;4988691;28;20030;-78
2022/05/12 06:58:57;;;;;;;2.97;1.17;;;17.60;83.40;;;;;;4989197;28;20034;-78
2022/05/12 07:01:23;;;;;;;2.60;1.20;;;17.60;83.60;;;;;;4971438;28;20030;-78
2022/05/12 07:03:48;;;;;;;2.45;1.20;;;17.60;83.50;;;;;;4971169;28;20404;-78
2022/05/12 07:06:14;;;;;;;2.22;1.30;;;17.60;83.50;;;;;;4970934;28;20025;-77
2022/05/12 07:08:41;;;;;;;2.50;1.08;;;17.60;83.60;;;;;;4988492;28;20031;-78
2022/05/12 07:11:07;;;;;;;3.17;1.08;;;17.60;83.60;;;;;;4971353;28;20026;-78
2022/05/12 07:13:33;;;;;;;2.47;1.20;;;17.60;83.70;;;;;;4971048;28;20030;-78
2022/05/12 07:15:58;;;;;;;2.63;1.20;;;17.60;83.60;;;;;;4988089;28;20041;-77
2022/05/12 07:18:24;;;;;;;1.67;1.02;;;17.60;83.40;;;;;;4972557;28;20030;-78
2022/05/12 07:26:35;;;;;;;3.00;1.00;;;17.70;83.10;;;;;;4989721;28;20412;-77
2022/05/12 07:29:05;;;;;;;2.83;1.20;;;17.70;83.00;;;;;;4972001;28;20120;-78
2022/05/12 07:31:31;;;;;;;2.28;1.10;;;17.80;82.90;;;;;;4971747;28;20042;-78
2022/05/12 07:33:57;;;;;;;1.90;1.10;;;17.70;82.80;;;;;;4971894;28;20053;-77
2022/05/12 07:36:31;;;;;;;2.75;1.08;;;17.80;82.80;;;;;;4989326;28;20026;-77
2022/05/12 07:38:56;;;;;;;2.00;1.10;;;17.80;83.40;;;;;;4972280;28;20069;-78
2022/05/12 07:41:23;;;;;;;3.00;1.20;;;17.80;82.70;;;;;;4971926;28;20053;-79
2022/05/12 07:43:49;;;;;;;2.25;1.10;;;17.90;82.50;;;;;;4973218;28;20018;-77
2022/05/12 07:46:17;;;;;;;1.98;1.10;;;17.90;82.30;;;;;;4970951;28;20037;-77
2022/05/12 07:48:43;;;;;;;2.22;1.13;;;18.00;82.10;;;;;;4971057;28;20034;-77
2022/05/12 07:51:09;;;;;;;2.90;1.30;;;18.00;82.00;;;;;;4988103;28;20042;-78
2022/05/12 07:53:37;;;;;;;1.98;1.10;;;18.00;81.90;;;;;;4987719;28;20041;-77
2022/05/12 07:56:03;;;;;;;1.88;1.00;;;18.00;81.80;;;;;;4970406;28;20037;-77
2022/05/12 07:58:29;;;;;;;1.95;1.10;;;18.00;81.90;;;;;;4970407;28;20107;-78
2022/05/12 08:00:55;;;;;;;1.55;1.10;;;18.00;82.00;;;;;;4974030;28;20409;-77
2022/05/12 08:03:22;;;;;;;1.92;1.00;;;18.00;82.10;;;;;;4992074;28;20030;-77
2022/05/12 08:05:48;;;;;;;1.80;1.10;;;18.00;82.00;;;;;;4974497;28;20069;-78
2022/05/12 08:08:13;;;;;;;2.58;1.25;;;18.00;81.90;;;;;;4991978;28;20481;-77
2022/05/12 08:10:39;;;;;;;2.85;1.00;;;18.00;81.80;;;;;;4991956;28;20092;-78
2022/05/12 08:13:07;;;;;;;1.70;1.10;;;18.00;81.80;;;;;;4992010;28;20053;-77
2022/05/12 08:15:33;;;;;;;1.98;1.10;;;18.10;81.70;;;;;;4974322;28;20076;-77
2022/05/12 08:17:58;;;;;;;2.00;1.10;;;18.10;81.70;;;;;;4991796;28;20034;-77
2022/05/12 08:20:24;;;;;;;3.35;1.30;;;18.10;81.60;;;;;;4974588;28;20038;-78
2022/05/12 08:22:51;;;;;;;2.80;1.10;;;18.00;81.60;;;;;;4991908;28;20034;-78
2022/05/12 08:25:18;;;;;;;1.50;1.05;;;18.10;81.70;;;;;;4973921;28;20022;-78
2022/05/12 08:27:44;;;;;;;2.38;1.35;;;18.20;81.80;;;;;;4991558;28;20033;-78
2022/05/12 08:30:12;;;;;;;2.22;1.10;;;18.10;81.70;;;;;;4974158;28;20121;-78
2022/05/12 08:32:38;;;;;;;1.65;1.00;;;18.10;81.80;;;;;;4991758;28;20088;-78
2022/05/12 08:35:05;;;;;;;1.85;1.10;;;18.10;81.80;;;;;;4991004;28;20038;-77
2022/05/12 08:37:30;;;;;;;2.08;1.15;;;18.10;82.00;;;;;;4974112;28;20031;-78
2022/05/12 08:39:56;;;;;;;2.22;1.10;;;18.10;82.10;;;;;;4991214;28;20374;-77
2022/05/12 08:42:35;;;;;;;2.17;1.05;;;18.10;82.10;;;;;;4991248;28;20097;-78
2022/05/12 08:45:04;;;;;;;1.30;0.90;;;18.10;81.80;;;;;;4973747;28;20525;-77
2022/05/12 08:47:34;;;;;;;3.42;1.40;;;18.20;81.70;;;;;;4973963;28;20053;-78
2022/05/12 08:50:01;;;;;;;2.25;1.15;;;18.10;81.60;;;;;;4991336;28;20034;-77
2022/05/12 08:52:47;;;;;;;2.72;1.00;;;18.20;81.50;;;;;;4973897;28;20083;-78
2022/05/12 08:55:28;;;;;;;1.80;1.05;;;18.20;81.50;;;;;;4973524;28;20062;-78
2022/05/12 08:58:00;;;;;;;1.63;1.00;;;18.20;81.50;;;;;;4991246;28;20505;-78
2022/05/12 09:00:31;;;;;;;2.13;1.20;;;18.10;81.70;;;;;;4991093;28;20477;-77
2022/05/12 09:03:24;;;;;;;2.35;1.10;;;18.10;81.70;;;;;;4974563;28;20065;-78
2022/05/12 09:06:05;;;;;;;1.77;1.10;;;18.10;81.90;;;;;;4968038;28;20584;-76
2022/05/12 09:08:56;;;;;;;2.10;1.00;;;18.10;81.80;;;;;;4991076;28;20423;-76
2022/05/12 09:11:44;;;;;;;1.67;1.00;;;18.10;81.90;;;;;;4990729;28;20129;-77
2022/05/12 09:14:23;;;;;;;2.65;1.00;;;18.10;81.80;;;;;;4990390;28;20041;-77
2022/05/12 09:16:52;;;;;;;2.90;1.15;;;18.10;81.80;;;;;;4973088;28;20037;-77
2022/05/12 09:19:19;;;;;;;2.17;1.05;;;18.20;81.80;;;;;;4991064;28;20034;-77
2022/05/12 09:21:45;;;;;;;2.80;1.30;;;18.20;81.70;;;;;;4991437;28;20023;-77
2022/05/12 09:24:11;;;;;;;2.70;1.17;;;18.20;81.50;;;;;;4990792;28;20050;-76
2022/05/12 09:26:41;;;;;;;2.47;1.17;;;18.20;81.50;;;;;;4973703;28;20038;-77
2022/05/12 09:29:15;;;;;;;2.67;1.17;;;18.20;81.60;;;;;;4973690;28;20121;-77
2022/05/12 09:31:49;;;;;;;5.05;1.52;;;18.20;81.60;;;;;;4991446;28;20030;-77
2022/05/12 09:34:33;;;;;;;3.95;1.50;;;18.10;81.60;;;;;;4990959;28;20085;-78
2022/05/12 09:37:16;;;;;;;2.50;1.38;;;18.10;81.60;;;;;;4973683;28;20026;-77
2022/05/12 09:39:48;;;;;;;3.00;1.48;;;18.10;81.60;;;;;;4973443;28;20089;-77
2022/05/12 09:42:53;;;;;;;5.55;1.30;;;18.20;81.60;;;;;;4990909;28;20037;-78
2022/05/12 09:45:23;;;;;;;2.78;1.35;;;18.20;81.40;;;;;;4960589;28;20555;-78
2022/05/12 09:47:49;;;;;;;3.23;1.50;;;18.20;81.30;;;;;;4991005;28;20078;-78
2022/05/12 09:50:21;;;;;;;3.33;1.30;;;18.30;81.30;;;;;;4973695;28;20030;-76
2022/05/12 09:53:00;;;;;;;3.33;1.30;;;18.30;81.30;;;;;;4990874;28;20026;-77
2022/05/12 09:55:37;;;;;;;4.43;1.65;;;18.30;81.10;;;;;;4990340;28;20050;-78
2022/05/12 09:58:14;;;;;;;2.50;1.30;;;18.30;80.90;;;;;;4975224;28;20502;-84
2022/05/12 10:01:03;;;;;;;2.97;1.35;;;18.30;80.90;;;;;;4976100;28;20038;-78
2022/05/12 10:09:05;;;;;;;2.83;1.40;;;18.20;81.40;;;;;;4992825;28;20532;-77
2022/05/12 10:11:53;;;;;;;2.33;1.20;;;18.20;81.40;;;;;;4975093;28;20037;-80
2022/05/12 10:14:42;;;;;;;2.97;1.52;;;18.30;81.30;;;;;;4961599;28;20045;-78
2022/05/12 10:17:23;;;;;;;3.75;1.42;;;18.20;81.20;;;;;;4975115;28;20386;-77
2022/05/12 10:19:49;;;;;;;2.55;1.30;;;18.30;81.20;;;;;;4974279;28;20033;-78
2022/05/12 10:22:42;;;;;;;1.98;1.40;;;18.20;81.20;;;;;;4975137;28;20026;-79
2022/05/12 10:25:21;;;;;;;2.47;1.27;;;18.30;81.40;;;;;;4981442;28;20040;-80
2022/05/12 10:27:55;;;;;;;3.60;1.30;;;18.30;81.50;;;;;;4984096;28;20459;-81
2022/05/12 10:30:37;;;;;;;3.15;1.40;;;18.20;81.40;;;;;;4983612;28;20089;-81
2022/05/12 10:33:28;;;;;;;2.92;1.17;;;18.30;81.30;;;;;;5001732;28;20019;-79
2022/05/12 10:36:05;;;;;;;3.63;1.40;;;18.30;81.10;;;;;;4983358;28;20485;-80
2022/05/12 10:38:50;;;;;;;2.30;1.30;;;18.30;81.10;;;;;;4982746;28;20524;-79
2022/05/12 10:41:29;;;;;;;3.00;1.20;;;18.40;81.00;;;;;;4982268;28;20037;-79
2022/05/12 10:44:19;;;;;;;2.15;1.25;;;18.40;81.00;;;;;;4982548;28;20018;-80
2022/05/12 10:46:49;;;;;;;3.10;1.42;;;18.40;80.90;;;;;;5000180;28;20400;-80
2022/05/12 10:49:22;;;;;;;1.88;1.23;;;18.40;80.90;;;;;;4999865;28;20105;-81
2022/05/12 10:52:13;;;;;;;3.25;1.30;;;18.40;80.80;;;;;;4982810;28;20080;-80
2022/05/12 10:55:13;;;;;;;2.78;1.40;;;18.40;80.70;;;;;;4981452;28;20030;-79
2022/05/12 10:57:51;;;;;;;;;;;18.50;80.70;;;;;;4980319;28;20030;-78
2022/05/12 11:00:29;;;;;;;4.93;1.95;;;18.50;80.60;;;;;;4980173;28;20381;-79
2022/05/12 11:03:01;;;;;;;2.45;1.00;;;18.40;80.60;;;;;;4996193;28;20027;-78
2022/05/12 11:05:40;;;;;;;2.00;1.27;;;18.40;80.70;;;;;;4995648;28;20023;-78
2022/05/12 11:08:21;;;;;;;2.47;1.27;;;18.40;80.80;;;;;;4978155;28;20688;-83
2022/05/12 11:10:48;;;;;;;;;;;18.40;80.90;;;;;;4979313;28;20030;-83
2022/05/12 11:13:32;;;;;;;2.47;1.30;;;18.50;81.00;;;;;;4978458;28;19906;-78
2022/05/12 11:16:26;;;;;;;3.05;1.30;;;18.40;81.00;;;;;;4978130;28;20034;-78
2022/05/12 11:19:16;;;;;;;3.88;1.30;;;18.40;81.00;;;;;;4991169;28;20035;-77
2022/05/12 11:21:56;;;;;;;2.90;1.40;;;18.40;81.00;;;;;;4994591;28;20034;-77
2022/05/12 11:24:28;;;;;;;3.38;1.20;;;18.40;81.10;;;;;;4977274;28;20098;-77
2022/05/12 11:27:22;;;;;;;1.95;1.23;;;18.40;81.00;;;;;;4977510;28;20441;-78
2022/05/12 11:30:22;;;;;;;2.53;1.20;;;18.40;81.00;;;;;;4977384;28;20038;-79
2022/05/12 11:33:18;;;;;;;3.00;1.30;;;18.40;81.00;;;;;;4977664;28;20029;-79
2022/05/12 11:35:45;;;;;;;2.55;1.30;;;18.40;80.90;;;;;;4976955;28;20030;-80
2022/05/12 11:38:43;;;;;;;1.77;1.25;;;18.40;80.90;;;;;;4995031;28;20026;-78
2022/05/12 11:41:37;;;;;;;2.63;1.13;;;18.40;81.00;;;;;;4995011;28;20097;-78
2022/05/12 11:44:27;;;;;;;2.50;1.50;;;18.40;81.20;;;;;;4994029;28;20022;-80
2022/05/12 11:47:05;;;;;;;2.85;1.33;;;18.30;81.20;;;;;;4976074;28;20555;-79
2022/05/12 11:49:34;;;;;;;1.55;1.10;;;18.40;81.10;;;;;;4993417;28;20030;-80
2022/05/12 11:52:18;;;;;;;2.72;1.20;;;18.40;81.00;;;;;;4993442;28;20022;-79
2022/05/12 11:55:27;;;;;;;2.15;1.30;;;18.40;80.90;;;;;;4993406;28;20072;-78
2022/05/12 11:58:06;;;;;;;2.70;1.40;;;18.50;80.80;;;;;;4993084;28;20038;-79
2022/05/12 12:00:34;;;;;;;2.40;1.25;;;18.40;80.80;;;;;;4976119;28;20046;-78
2022/05/12 12:03:18;;;;;;;3.20;1.40;;;18.40;80.80;;;;;;4976343;28;20030;-79
2022/05/12 12:05:49;;;;;;;2.70;1.33;;;18.40;81.10;;;;;;4993249;28;20022;-78
2022/05/12 12:08:30;;;;;;;3.40;1.33;;;18.30;81.30;;;;;;4976630;28;20109;-80
2022/05/12 12:11:20;;;;;;;1.92;1.20;;;18.30;81.50;;;;;;4994409;28;20034;-80
2022/05/12 12:13:48;;;;;;;2.83;1.30;;;18.20;81.60;;;;;;4993880;28;20018;-78
2022/05/12 12:16:22;;;;;;;2.47;1.25;;;18.20;81.70;;;;;;4994442;28;20069;-78
2022/05/12 12:18:52;;;;;;;3.78;1.45;;;18.20;81.80;;;;;;4993883;28;20464;-78
2022/05/12 12:21:44;;;;;;;3.22;1.40;;;18.20;81.90;;;;;;4977532;28;20030;-78
2022/05/12 12:24:18;;;;;;;2.95;1.52;;;18.20;82.00;;;;;;4994378;28;20446;-76
2022/05/12 12:26:46;;;;;;;2.75;1.17;;;18.20;82.10;;;;;;4995070;28;20033;-79
2022/05/12 12:29:17;;;;;;;2.72;1.45;;;18.10;82.10;;;;;;4977337;28;20397;-78
2022/05/12 12:31:44;;;;;;;2.92;1.40;;;18.20;82.10;;;;;;4978559;28;20022;-78
2022/05/12 12:34:17;;;;;;;2.47;1.27;;;18.10;82.00;;;;;;4977639;28;20027;-78
2022/05/12 12:36:49;;;;;;;2.10;1.30;;;18.10;82.10;;;;;;4995579;28;20054;-78
2022/05/12 12:39:36;;;;;;;3.95;1.50;;;18.10;82.10;;;;;;4977891;28;20029;-78
2022/05/12 12:42:30;;;;;;;2.70;1.33;;;18.10;82.20;;;;;;4995800;28;20588;-78
2022/05/12 12:45:11;;;;;;;2.42;1.25;;;18.10;82.20;;;;;;4977609;28;20022;-78
2022/05/12 12:47:57;;;;;;;2.25;1.23;;;18.10;82.30;;;;;;4998480;28;20041;-78
2022/05/12 12:50:44;;;;;;;2.03;1.20;;;18.10;82.00;;;;;;4979972;28;20057;-80
2022/05/12 12:56:30;;;;;;;2.58;1.30;;;18.20;82.40;;;;;;4982170;28;20041;-78
2022/05/12 12:59:12;;;;;;;3.33;1.63;;;18.20;81.80;;;;;;4997339;28;20508;-77
2022/05/12 13:01:56;;;;;;;3.35;1.48;;;18.20;81.70;;;;;;4997333;28;20125;-79
2022/05/12 13:04:34;;;;;;;2.78;1.20;;;18.30;81.70;;;;;;4997518;28;20085;-78
2022/05/12 13:07:02;;;;;;;2.70;1.13;;;18.20;81.60;;;;;;4979329;28;20023;-78
2022/05/12 13:09:33;;;;;;;2.10;1.27;;;18.20;81.40;;;;;;4996802;28;20034;-78
2022/05/12 13:12:07;;;;;;;2.58;1.23;;;18.20;81.60;;;;;;4997045;28;20451;-79
2022/05/12 13:14:35;;;;;;;3.20;1.20;;;18.20;81.80;;;;;;4996443;28;20019;-78
2022/05/12 13:17:01;;;;;;;2.58;1.15;;;18.20;81.80;;;;;;4996261;28;20037;-79
2022/05/12 13:19:33;;;;;;;2.42;1.40;;;18.10;82.00;;;;;;4978788;28;20023;-79
2022/05/12 13:21:59;;;;;;;2.90;1.13;;;18.10;82.10;;;;;;4979833;28;20027;-78
2022/05/12 13:24:27;;;;;;;2.80;1.27;;;18.10;82.20;;;;;;4968421;28;20037;-78
2022/05/12 13:26:58;;;;;;;2.00;1.10;;;18.10;82.30;;;;;;4977250;28;20544;-78